KSCK/SCK METAR and TAF weather

Enter ICAO airport designator
Station Type Date Time Source
KSCK METAR 2022/01/25 03:55 UTC NOAA

KSCK 250355Z 23003KT 10SM CLR 07/03 A3006 RMK AO2 SLP179 T00720033


Station Type Date Time Source
KSCK Decoded METAR 2022/01/25 03:55 UTC NOAA

STOCKTON METROPOLITAN AIRPORT , CA, United States (KSCK) 37-54N 121-14W 10M
Jan 24, 2022 - 10:55 PM EST / 2022.01.25 0355 UTC
Wind: from the SW (230 degrees) at 3 MPH (3 KT):0
Visibility: 10 mile(s):0
Sky conditions: clear
Temperature: 45.0 F (7.2 C)
Dew Point: 37.9 F (3.3 C)
Relative Humidity: 76%
Pressure (altimeter): 30.06 in. Hg (1017 hPa)
ob: KSCK 250355Z 23003KT 10SM CLR 07/03 A3006 RMK AO2 SLP179 T00720033
cycle: 4

Station Type Date Time Source
KSCK TAF 2022/01/24 18:27 UTC NOAA

TAF KSCK 241725Z 2418/2518 VRB04KT 4SM BR SKC
FM241900 VRB04KT 6SM HZ SKC
FM242200 VRB03KT P6SM SKC
FM250300 VRB03KT 5SM BR SKC

Example: see airport list